sensor_id;sensor_type;location;lat;lon;timestamp;pressure;altitude;pressure_sealevel;temperature;humidity
596;BME280;19946;49.306;11.350;2023-06-14T00:01:40;95967.47;;;15.20;53.15
596;BME280;19946;49.306;11.350;2023-06-14T00:04:41;95978.06;;;15.18;53.98
596;BME280;19946;49.306;11.350;2023-06-14T00:07:42;95984.84;;;15.27;54.02
596;BME280;19946;49.306;11.350;2023-06-14T00:10:48;95965.88;;;15.11;53.99
596;BME280;19946;49.306;11.350;2023-06-14T00:13:49;96016.41;;;15.49;54.26
596;BME280;19946;49.306;11.350;2023-06-14T00:16:49;95962.94;;;15.06;54.89
596;BME280;19946;49.306;11.350;2023-06-14T00:19:49;96021.38;;;15.36;54.71
596;BME280;19946;49.306;11.350;2023-06-14T00:22:50;95977.16;;;14.95;55.43
596;BME280;19946;49.306;11.350;2023-06-14T00:25:50;95967.72;;;14.94;55.82
596;BME280;19946;49.306;11.350;2023-06-14T00:28:51;96015.88;;;15.14;56.19
596;BME280;19946;49.306;11.350;2023-06-14T00:31:51;95972.97;;;14.86;56.86
596;BME280;19946;49.306;11.350;2023-06-14T00:34:52;95997.56;;;14.91;57.50
596;BME280;19946;49.306;11.350;2023-06-14T00:37:53;95980.81;;;14.78;58.00
596;BME280;19946;49.306;11.350;2023-06-14T00:40:54;95956.91;;;14.66;57.89
596;BME280;19946;49.306;11.350;2023-06-14T00:43:55;95987.63;;;14.87;58.26
596;BME280;19946;49.306;11.350;2023-06-14T00:46:56;95944.69;;;14.67;58.31
596;BME280;19946;49.306;11.350;2023-06-14T00:49:58;96006.16;;;15.00;58.54
596;BME280;19946;49.306;11.350;2023-06-14T00:53:00;95999.19;;;14.84;59.06
596;BME280;19946;49.306;11.350;2023-06-14T00:56:02;96002.63;;;14.77;60.47
596;BME280;19946;49.306;11.350;2023-06-14T00:59:03;96010.47;;;14.69;61.31
596;BME280;19946;49.306;11.350;2023-06-14T01:02:04;95968.16;;;14.34;62.36
596;BME280;19946;49.306;11.350;2023-06-14T01:05:06;95954.16;;;14.19;63.73
596;BME280;19946;49.306;11.350;2023-06-14T01:08:42;96009.50;;;14.21;66.56
596;BME280;19946;49.306;11.350;2023-06-14T01:12:11;95989.47;;;13.89;70.63
596;BME280;19946;49.306;11.350;2023-06-14T01:15:14;95934.28;;;13.37;72.59
596;BME280;19946;49.306;11.350;2023-06-14T01:18:15;95930.16;;;13.18;77.36
596;BME280;19946;49.306;11.350;2023-06-14T01:21:22;95966.38;;;13.20;83.66
596;BME280;19946;49.306;11.350;2023-06-14T01:24:24;95953.97;;;13.05;86.85
596;BME280;19946;49.306;11.350;2023-06-14T01:27:26;96010.34;;;13.39;88.30
596;BME280;19946;49.306;11.350;2023-06-14T01:30:30;96004.75;;;13.18;93.27
596;BME280;19946;49.306;11.350;2023-06-14T01:33:35;96012.53;;;13.18;95.82
596;BME280;19946;49.306;11.350;2023-06-14T01:36:37;95970.63;;;12.87;98.70
596;BME280;19946;49.306;11.350;2023-06-14T01:39:42;95994.22;;;13.01;100.00
596;BME280;19946;49.306;11.350;2023-06-14T01:42:46;95925.81;;;12.59;100.00
596;BME280;19946;49.306;11.350;2023-06-14T01:45:47;95963.81;;;12.86;100.00
596;BME280;19946;49.306;11.350;2023-06-14T01:48:49;95975.84;;;12.87;100.00
596;BME280;19946;49.306;11.350;2023-06-14T01:51:49;95994.19;;;12.93;100.00
596;BME280;19946;49.306;11.350;2023-06-14T01:54:50;95960.97;;;12.71;100.00
596;BME280;19946;49.306;11.350;2023-06-14T01:57:51;95954.66;;;12.73;100.00
596;BME280;19946;49.306;11.350;2023-06-14T02:00:52;95994.75;;;13.05;100.00
596;BME280;19946;49.306;11.350;2023-06-14T02:03:55;95936.97;;;12.43;100.00
596;BME280;19946;49.306;11.350;2023-06-14T02:06:55;95980.94;;;12.70;100.00
596;BME280;19946;49.306;11.350;2023-06-14T02:09:56;95977.22;;;12.73;100.00
596;BME280;19946;49.306;11.350;2023-06-14T02:12:57;95927.22;;;12.45;100.00
596;BME280;19946;49.306;11.350;2023-06-14T02:15:57;95987.31;;;12.76;100.00
596;BME280;19946;49.306;11.350;2023-06-14T02:18:57;95957.50;;;12.62;100.00
596;BME280;19946;49.306;11.350;2023-06-14T02:21:58;95957.28;;;12.56;100.00
596;BME280;19946;49.306;11.350;2023-06-14T02:24:58;95985.31;;;12.70;100.00
596;BME280;19946;49.306;11.350;2023-06-14T02:27:58;95951.16;;;12.31;100.00
596;BME280;19946;49.306;11.350;2023-06-14T02:30:59;95979.75;;;12.39;100.00
596;BME280;19946;49.306;11.350;2023-06-14T02:34:00;95945.06;;;12.22;100.00
596;BME280;19946;49.306;11.350;2023-06-14T02:37:02;96014.66;;;12.62;100.00
596;BME280;19946;49.306;11.350;2023-06-14T02:40:04;96002.63;;;12.61;100.00
596;BME280;19946;49.306;11.350;2023-06-14T02:43:05;95942.13;;;12.17;100.00
596;BME280;19946;49.306;11.350;2023-06-14T02:46:06;95955.63;;;12.21;100.00
596;BME280;19946;49.306;11.350;2023-06-14T02:49:07;96002.41;;;12.55;100.00
596;BME280;19946;49.306;11.350;2023-06-14T02:52:07;96003.31;;;12.46;100.00
596;BME280;19946;49.306;11.350;2023-06-14T02:55:09;96019.72;;;12.46;100.00
596;BME280;19946;49.306;11.350;2023-06-14T02:58:09;95974.28;;;12.24;100.00
596;BME280;19946;49.306;11.350;2023-06-14T03:01:10;95981.59;;;12.21;100.00
596;BME280;19946;49.306;11.350;2023-06-14T03:04:12;95999.28;;;12.43;100.00
596;BME280;19946;49.306;11.350;2023-06-14T03:07:14;96001.25;;;12.49;100.00
596;BME280;19946;49.306;11.350;2023-06-14T03:10:20;96007.41;;;12.48;100.00
596;BME280;19946;49.306;11.350;2023-06-14T03:13:20;96020.63;;;12.37;100.00
596;BME280;19946;49.306;11.350;2023-06-14T03:16:22;96011.16;;;12.28;100.00
596;BME280;19946;49.306;11.350;2023-06-14T03:19:24;96001.78;;;12.09;100.00
596;BME280;19946;49.306;11.350;2023-06-14T03:22:27;96033.13;;;12.16;100.00
596;BME280;19946;49.306;11.350;2023-06-14T03:25:29;95952.59;;;11.72;100.00
596;BME280;19946;49.306;11.350;2023-06-14T03:28:34;96040.25;;;12.14;100.00
596;BME280;19946;49.306;11.350;2023-06-14T03:31:35;96027.59;;;12.11;100.00
596;BME280;19946;49.306;11.350;2023-06-14T03:34:38;96044.53;;;12.23;100.00
596;BME280;19946;49.306;11.350;2023-06-14T03:37:39;96018.97;;;12.10;100.00
596;BME280;19946;49.306;11.350;2023-06-14T03:40:39;96017.41;;;12.17;100.00
596;BME280;19946;49.306;11.350;2023-06-14T03:43:41;96024.16;;;12.10;100.00
596;BME280;19946;49.306;11.350;2023-06-14T03:46:41;96049.44;;;12.26;100.00
596;BME280;19946;49.306;11.350;2023-06-14T03:49:42;96054.78;;;12.24;100.00
596;BME280;19946;49.306;11.350;2023-06-14T03:52:42;96037.34;;;12.17;100.00
596;BME280;19946;49.306;11.350;2023-06-14T03:55:44;95973.63;;;11.79;100.00
596;BME280;19946;49.306;11.350;2023-06-14T03:58:45;96053.13;;;12.23;100.00
596;BME280;19946;49.306;11.350;2023-06-14T04:01:45;96038.59;;;12.13;100.00
596;BME280;19946;49.306;11.350;2023-06-14T04:04:49;96002.22;;;11.87;100.00
596;BME280;19946;49.306;11.350;2023-06-14T04:07:49;96042.56;;;12.17;100.00
596;BME280;19946;49.306;11.350;2023-06-14T04:10:50;96048.50;;;12.09;100.00
596;BME280;19946;49.306;11.350;2023-06-14T04:13:51;96040.03;;;12.07;100.00
596;BME280;19946;49.306;11.350;2023-06-14T04:16:54;96039.81;;;12.18;100.00
596;BME280;19946;49.306;11.350;2023-06-14T04:19:55;96075.31;;;12.79;100.00
596;BME280;19946;49.306;11.350;2023-06-14T04:22:56;96012.81;;;12.55;100.00
596;BME280;19946;49.306;11.350;2023-06-14T04:25:57;96034.44;;;12.89;100.00
596;BME280;19946;49.306;11.350;2023-06-14T04:29:02;95988.47;;;12.82;100.00
596;BME280;19946;49.306;11.350;2023-06-14T04:32:05;96027.19;;;13.19;97.40
596;BME280;19946;49.306;11.350;2023-06-14T04:35:07;96079.66;;;12.96;100.00
596;BME280;19946;49.306;11.350;2023-06-14T04:38:09;96079.25;;;12.83;100.00
596;BME280;19946;49.306;11.350;2023-06-14T04:41:13;96026.56;;;12.47;100.00
596;BME280;19946;49.306;11.350;2023-06-14T04:44:16;96050.00;;;12.37;100.00
596;BME280;19946;49.306;11.350;2023-06-14T04:47:21;96066.38;;;12.56;100.00
596;BME280;19946;49.306;11.350;2023-06-14T04:50:21;96071.28;;;12.59;100.00
596;BME280;19946;49.306;11.350;2023-06-14T04:53:22;96056.09;;;12.46;100.00
596;BME280;19946;49.306;11.350;2023-06-14T04:56:25;96088.56;;;12.68;100.00
596;BME280;19946;49.306;11.350;2023-06-14T04:59:26;96023.31;;;12.71;100.00
596;BME280;19946;49.306;11.350;2023-06-14T05:02:26;96049.97;;;13.33;100.00
596;BME280;19946;49.306;11.350;2023-06-14T05:05:28;96065.25;;;13.78;95.53
596;BME280;19946;49.306;11.350;2023-06-14T05:08:28;96092.25;;;13.77;100.00
596;BME280;19946;49.306;11.350;2023-06-14T05:11:29;96067.59;;;13.47;100.00
596;BME280;19946;49.306;11.350;2023-06-14T05:14:30;96063.63;;;13.77;98.37
596;BME280;19946;49.306;11.350;2023-06-14T05:17:31;96060.97;;;13.61;100.00
596;BME280;19946;49.306;11.350;2023-06-14T05:20:31;96085.97;;;14.12;98.33
596;BME280;19946;49.306;11.350;2023-06-14T05:23:32;96104.16;;;13.96;100.00
596;BME280;19946;49.306;11.350;2023-06-14T05:26:32;96068.91;;;13.51;100.00
596;BME280;19946;49.306;11.350;2023-06-14T05:29:33;96081.66;;;13.28;100.00
596;BME280;19946;49.306;11.350;2023-06-14T05:32:34;96090.09;;;13.04;100.00
596;BME280;19946;49.306;11.350;2023-06-14T05:35:34;96120.81;;;13.09;100.00
596;BME280;19946;49.306;11.350;2023-06-14T05:38:34;96035.44;;;12.62;100.00
596;BME280;19946;49.306;11.350;2023-06-14T05:41:34;96061.88;;;12.84;100.00
596;BME280;19946;49.306;11.350;2023-06-14T05:44:35;96095.41;;;13.21;100.00
596;BME280;19946;49.306;11.350;2023-06-14T05:47:35;96100.78;;;14.11;100.00
596;BME280;19946;49.306;11.350;2023-06-14T05:50:35;96123.19;;;14.71;99.66
596;BME280;19946;49.306;11.350;2023-06-14T05:53:36;96093.31;;;15.06;94.26
596;BME280;19946;49.306;11.350;2023-06-14T05:56:36;96082.31;;;14.79;92.34
596;BME280;19946;49.306;11.350;2023-06-14T05:59:36;96082.28;;;14.87;93.64
596;BME280;19946;49.306;11.350;2023-06-14T06:02:37;96122.81;;;15.14;100.00
596;BME280;19946;49.306;11.350;2023-06-14T06:05:37;96096.97;;;15.52;86.48
596;BME280;19946;49.306;11.350;2023-06-14T06:08:37;96087.63;;;16.73;72.53
596;BME280;19946;49.306;11.350;2023-06-14T06:11:38;96102.72;;;16.86;72.44
596;BME280;19946;49.306;11.350;2023-06-14T06:14:38;96123.63;;;17.52;67.47
596;BME280;19946;49.306;11.350;2023-06-14T06:17:39;96077.97;;;17.84;61.18
596;BME280;19946;49.306;11.350;2023-06-14T06:20:39;96087.50;;;17.04;66.07
596;BME280;19946;49.306;11.350;2023-06-14T06:23:40;96090.56;;;16.47;69.28
596;BME280;19946;49.306;11.350;2023-06-14T06:26:40;96128.78;;;16.48;79.31
596;BME280;19946;49.306;11.350;2023-06-14T06:29:42;96105.22;;;16.11;74.29
596;BME280;19946;49.306;11.350;2023-06-14T06:32:43;96064.81;;;15.90;73.68
596;BME280;19946;49.306;11.350;2023-06-14T06:35:43;96129.22;;;16.06;76.99
596;BME280;19946;49.306;11.350;2023-06-14T06:38:44;96127.97;;;16.25;78.54
596;BME280;19946;49.306;11.350;2023-06-14T06:41:44;96156.03;;;16.85;69.80
596;BME280;19946;49.306;11.350;2023-06-14T06:44:44;96101.97;;;16.54;72.74
596;BME280;19946;49.306;11.350;2023-06-14T06:47:46;96112.84;;;16.66;72.27
596;BME280;19946;49.306;11.350;2023-06-14T06:50:46;96145.78;;;16.52;79.66
596;BME280;19946;49.306;11.350;2023-06-14T06:53:52;96148.22;;;16.76;70.64
596;BME280;19946;49.306;11.350;2023-06-14T06:56:53;96141.50;;;17.34;69.81
596;BME280;19946;49.306;11.350;2023-06-14T06:59:53;96147.00;;;17.54;62.87
596;BME280;19946;49.306;11.350;2023-06-14T07:02:54;96141.19;;;18.17;59.58
596;BME280;19946;49.306;11.350;2023-06-14T07:05:55;96157.59;;;18.41;57.22
596;BME280;19946;49.306;11.350;2023-06-14T07:08:55;96145.53;;;18.61;55.08
596;BME280;19946;49.306;11.350;2023-06-14T07:12:01;96153.03;;;18.85;56.14
596;BME280;19946;49.306;11.350;2023-06-14T07:15:02;96121.06;;;18.39;58.12
596;BME280;19946;49.306;11.350;2023-06-14T07:18:04;96159.06;;;18.29;56.73
596;BME280;19946;49.306;11.350;2023-06-14T07:21:04;96126.00;;;18.64;54.87
596;BME280;19946;49.306;11.350;2023-06-14T07:24:05;96165.53;;;19.60;53.46
596;BME280;19946;49.306;11.350;2023-06-14T07:27:09;96121.22;;;18.95;53.89
596;BME280;19946;49.306;11.350;2023-06-14T07:30:10;96165.72;;;19.87;52.38
596;BME280;19946;49.306;11.350;2023-06-14T07:33:10;96161.47;;;19.92;51.35
596;BME280;19946;49.306;11.350;2023-06-14T07:36:12;96164.84;;;19.80;52.07
596;BME280;19946;49.306;11.350;2023-06-14T07:39:12;96187.69;;;19.23;49.55
596;BME280;19946;49.306;11.350;2023-06-14T07:42:13;96180.63;;;19.24;50.72
596;BME280;19946;49.306;11.350;2023-06-14T07:45:13;96166.72;;;19.30;53.55
596;BME280;19946;49.306;11.350;2023-06-14T07:48:14;96151.28;;;18.92;54.15
596;BME280;19946;49.306;11.350;2023-06-14T07:51:15;96175.66;;;19.36;51.34
596;BME280;19946;49.306;11.350;2023-06-14T07:54:15;96118.53;;;19.10;53.46
596;BME280;19946;49.306;11.350;2023-06-14T07:57:16;96169.75;;;20.30;52.52
596;BME280;19946;49.306;11.350;2023-06-14T08:00:17;96139.56;;;20.20;53.66
596;BME280;19946;49.306;11.350;2023-06-14T08:03:18;96172.28;;;20.58;52.14
596;BME280;19946;49.306;11.350;2023-06-14T08:06:19;96177.94;;;20.08;51.08
596;BME280;19946;49.306;11.350;2023-06-14T08:09:20;96181.13;;;20.37;49.90
596;BME280;19946;49.306;11.350;2023-06-14T08:12:20;96159.53;;;20.62;47.77
596;BME280;19946;49.306;11.350;2023-06-14T08:15:20;96190.38;;;20.94;49.90
596;BME280;19946;49.306;11.350;2023-06-14T08:18:21;96185.63;;;20.57;46.92
596;BME280;19946;49.306;11.350;2023-06-14T08:21:21;96160.66;;;19.92;51.37
596;BME280;19946;49.306;11.350;2023-06-14T08:24:22;96136.31;;;20.85;47.29
596;BME280;19946;49.306;11.350;2023-06-14T08:27:24;96134.47;;;21.58;50.63
596;BME280;19946;49.306;11.350;2023-06-14T08:30:25;96178.81;;;21.81;44.74
596;BME280;19946;49.306;11.350;2023-06-14T08:33:25;96179.66;;;21.09;45.38
596;BME280;19946;49.306;11.350;2023-06-14T08:36:25;96166.91;;;21.52;45.36
596;BME280;19946;49.306;11.350;2023-06-14T08:39:26;96178.06;;;21.41;45.70
596;BME280;19946;49.306;11.350;2023-06-14T08:42:26;96180.25;;;21.70;42.14
596;BME280;19946;49.306;11.350;2023-06-14T08:45:26;96149.47;;;21.58;43.47
596;BME280;19946;49.306;11.350;2023-06-14T08:48:27;96168.91;;;21.70;42.48
596;BME280;19946;49.306;11.350;2023-06-14T08:51:27;96201.91;;;21.00;45.87
596;BME280;19946;49.306;11.350;2023-06-14T08:54:34;96187.94;;;20.99;46.57
596;BME280;19946;49.306;11.350;2023-06-14T08:57:37;96199.19;;;20.54;46.90
596;BME280;19946;49.306;11.350;2023-06-14T09:00:38;96165.88;;;21.73;46.90
596;BME280;19946;49.306;11.350;2023-06-14T09:03:41;96172.38;;;22.73;42.87
596;BME280;19946;49.306;11.350;2023-06-14T09:06:41;96135.19;;;23.12;42.27
596;BME280;19946;49.306;11.350;2023-06-14T09:09:42;96180.97;;;23.74;41.43
596;BME280;19946;49.306;11.350;2023-06-14T09:12:42;96201.69;;;22.58;41.02
596;BME280;19946;49.306;11.350;2023-06-14T09:15:43;96146.28;;;22.13;42.44
596;BME280;19946;49.306;11.350;2023-06-14T09:18:45;96202.81;;;23.13;42.42
596;BME280;19946;49.306;11.350;2023-06-14T09:21:48;96198.97;;;22.33;42.65
596;BME280;19946;49.306;11.350;2023-06-14T09:24:48;96217.72;;;21.85;43.80
596;BME280;19946;49.306;11.350;2023-06-14T09:27:48;96175.03;;;21.51;43.79
596;BME280;19946;49.306;11.350;2023-06-14T09:30:48;96171.06;;;22.06;41.82
596;BME280;19946;49.306;11.350;2023-06-14T09:33:50;96206.78;;;21.82;42.60
596;BME280;19946;49.306;11.350;2023-06-14T09:36:52;96201.50;;;23.54;40.95
596;BME280;19946;49.306;11.350;2023-06-14T09:39:52;96167.63;;;23.19;40.17
596;BME280;19946;49.306;11.350;2023-06-14T09:42:53;96162.72;;;23.23;40.20
596;BME280;19946;49.306;11.350;2023-06-14T09:45:53;96192.69;;;24.21;40.83
596;BME280;19946;49.306;11.350;2023-06-14T09:48:54;96155.44;;;23.86;37.76
596;BME280;19946;49.306;11.350;2023-06-14T09:51:55;96204.69;;;23.06;40.30
596;BME280;19946;49.306;11.350;2023-06-14T09:54:58;96138.44;;;21.87;41.85
596;BME280;19946;49.306;11.350;2023-06-14T09:58:00;96219.00;;;21.50;42.90
596;BME280;19946;49.306;11.350;2023-06-14T10:01:05;96217.31;;;20.96;45.30
596;BME280;19946;49.306;11.350;2023-06-14T10:04:09;96207.09;;;20.19;44.71
596;BME280;19946;49.306;11.350;2023-06-14T10:07:10;96215.91;;;19.98;46.61
596;BME280;19946;49.306;11.350;2023-06-14T10:10:10;96164.53;;;19.61;46.56
596;BME280;19946;49.306;11.350;2023-06-14T10:13:12;96199.53;;;20.03;48.49
596;BME280;19946;49.306;11.350;2023-06-14T10:16:24;96212.47;;;19.98;47.77
596;BME280;19946;49.306;11.350;2023-06-14T10:19:34;96180.03;;;20.25;44.94
596;BME280;19946;49.306;11.350;2023-06-14T10:23:00;96178.28;;;20.39;45.41
596;BME280;19946;49.306;11.350;2023-06-14T10:26:01;96218.66;;;20.79;44.21
596;BME280;19946;49.306;11.350;2023-06-14T10:29:08;96219.81;;;20.57;44.71
596;BME280;19946;49.306;11.350;2023-06-14T10:32:09;96197.19;;;20.62;44.45
596;BME280;19946;49.306;11.350;2023-06-14T10:35:16;96219.13;;;21.02;44.53
596;BME280;19946;49.306;11.350;2023-06-14T10:38:30;96207.44;;;21.58;44.65
596;BME280;19946;49.306;11.350;2023-06-14T10:41:34;96217.97;;;21.71;42.19
596;BME280;19946;49.306;11.350;2023-06-14T10:44:40;96219.28;;;20.74;43.30
596;BME280;19946;49.306;11.350;2023-06-14T10:47:41;96181.91;;;21.19;41.88
596;BME280;19946;49.306;11.350;2023-06-14T10:50:42;96166.22;;;20.71;41.80
596;BME280;19946;49.306;11.350;2023-06-14T10:53:45;96205.09;;;20.69;42.37
596;BME280;19946;49.306;11.350;2023-06-14T10:56:51;96214.84;;;20.88;43.05
596;BME280;19946;49.306;11.350;2023-06-14T10:59:51;96190.09;;;20.69;43.11
596;BME280;19946;49.306;11.350;2023-06-14T11:06:14;96185.19;;;20.47;42.68
596;BME280;19946;49.306;11.350;2023-06-14T11:10:26;96199.06;;;21.94;43.07
596;BME280;19946;49.306;11.350;2023-06-14T11:13:08;96169.56;;;23.30;37.61
596;BME280;19946;49.306;11.350;2023-06-14T11:16:12;96189.53;;;22.57;40.76
596;BME280;19946;49.306;11.350;2023-06-14T11:19:12;96211.88;;;21.18;41.80
596;BME280;19946;49.306;11.350;2023-06-14T11:22:13;96205.06;;;20.15;42.92
596;BME280;19946;49.306;11.350;2023-06-14T11:25:15;96213.81;;;19.59;44.29
596;BME280;19946;49.306;11.350;2023-06-14T11:28:15;96218.22;;;19.31;45.38
596;BME280;19946;49.306;11.350;2023-06-14T11:31:15;96199.81;;;19.03;46.04
596;BME280;19946;49.306;11.350;2023-06-14T11:34:17;96187.75;;;19.09;45.39
596;BME280;19946;49.306;11.350;2023-06-14T11:37:17;96173.00;;;19.08;44.60
596;BME280;19946;49.306;11.350;2023-06-14T11:40:17;96199.31;;;19.63;44.68
596;BME280;19946;49.306;11.350;2023-06-14T11:43:18;96196.81;;;19.83;44.59
596;BME280;19946;49.306;11.350;2023-06-14T11:46:18;96208.41;;;19.95;45.05
596;BME280;19946;49.306;11.350;2023-06-14T11:49:24;96141.00;;;19.47;43.33
596;BME280;19946;49.306;11.350;2023-06-14T11:52:25;96207.31;;;19.83;41.39
596;BME280;19946;49.306;11.350;2023-06-14T11:55:25;96210.03;;;19.68;44.88
596;BME280;19946;49.306;11.350;2023-06-14T11:58:26;96187.34;;;19.89;42.54
596;BME280;19946;49.306;11.350;2023-06-14T12:01:27;96158.31;;;19.69;42.34
596;BME280;19946;49.306;11.350;2023-06-14T12:04:27;96190.06;;;20.43;43.08
596;BME280;19946;49.306;11.350;2023-06-14T12:07:30;96189.97;;;21.83;40.50
596;BME280;19946;49.306;11.350;2023-06-14T12:10:39;96190.28;;;22.64;40.89
596;BME280;19946;49.306;11.350;2023-06-14T12:13:41;96178.97;;;23.70;36.25
596;BME280;19946;49.306;11.350;2023-06-14T12:16:41;96182.56;;;22.25;37.95
596;BME280;19946;49.306;11.350;2023-06-14T12:19:42;96186.16;;;21.26;39.99
596;BME280;19946;49.306;11.350;2023-06-14T12:23:03;96136.28;;;20.78;40.32
596;BME280;19946;49.306;11.350;2023-06-14T12:26:03;96186.69;;;20.82;40.33
596;BME280;19946;49.306;11.350;2023-06-14T12:29:05;96183.06;;;20.83;41.13
596;BME280;19946;49.306;11.350;2023-06-14T12:32:07;96150.91;;;21.47;39.86
596;BME280;19946;49.306;11.350;2023-06-14T12:35:07;96176.72;;;21.96;40.47
596;BME280;19946;49.306;11.350;2023-06-14T12:38:08;96177.78;;;21.89;40.01
596;BME280;19946;49.306;11.350;2023-06-14T12:41:08;96124.56;;;21.34;38.72
596;BME280;19946;49.306;11.350;2023-06-14T12:44:10;96154.78;;;22.22;38.12
596;BME280;19946;49.306;11.350;2023-06-14T12:47:10;96176.41;;;21.53;39.87
596;BME280;19946;49.306;11.350;2023-06-14T12:50:12;96160.53;;;21.99;38.69
596;BME280;19946;49.306;11.350;2023-06-14T12:53:13;96140.16;;;20.83;39.49
596;BME280;19946;49.306;11.350;2023-06-14T12:56:13;96118.69;;;21.12;37.85
596;BME280;19946;49.306;11.350;2023-06-14T12:59:13;96156.06;;;22.00;38.73
596;BME280;19946;49.306;11.350;2023-06-14T13:02:16;96160.94;;;20.51;39.91
596;BME280;19946;49.306;11.350;2023-06-14T13:05:16;96171.50;;;21.76;38.90
596;BME280;19946;49.306;11.350;2023-06-14T13:08:16;96153.72;;;21.45;38.25
596;BME280;19946;49.306;11.350;2023-06-14T13:11:17;96158.97;;;20.86;38.51
596;BME280;19946;49.306;11.350;2023-06-14T13:14:17;96155.13;;;20.75;39.16
596;BME280;19946;49.306;11.350;2023-06-14T13:17:17;96192.22;;;21.20;39.39
596;BME280;19946;49.306;11.350;2023-06-14T13:20:18;96159.63;;;21.21;39.82
596;BME280;19946;49.306;11.350;2023-06-14T13:23:18;96108.28;;;20.38;41.22
596;BME280;19946;49.306;11.350;2023-06-14T13:26:18;96161.38;;;20.61;41.32
596;BME280;19946;49.306;11.350;2023-06-14T13:29:18;96201.69;;;20.82;40.43
596;BME280;19946;49.306;11.350;2023-06-14T13:32:20;96168.06;;;20.64;40.46
596;BME280;19946;49.306;11.350;2023-06-14T13:35:21;96152.28;;;20.90;39.57
596;BME280;19946;49.306;11.350;2023-06-14T13:38:21;96117.34;;;20.29;40.05
596;BME280;19946;49.306;11.350;2023-06-14T13:41:22;96182.47;;;21.01;39.16
596;BME280;19946;49.306;11.350;2023-06-14T13:44:22;96080.03;;;20.86;38.81
596;BME280;19946;49.306;11.350;2023-06-14T13:47:23;96114.44;;;20.98;38.29
596;BME280;19946;49.306;11.350;2023-06-14T13:50:23;96174.53;;;22.89;39.46
596;BME280;19946;49.306;11.350;2023-06-14T13:53:23;96127.47;;;23.36;36.06
596;BME280;19946;49.306;11.350;2023-06-14T13:56:24;96179.59;;;22.01;38.90
596;BME280;19946;49.306;11.350;2023-06-14T13:59:24;96126.19;;;21.35;37.48
596;BME280;19946;49.306;11.350;2023-06-14T14:02:24;96172.69;;;21.94;37.92
596;BME280;19946;49.306;11.350;2023-06-14T14:05:25;96162.56;;;22.86;39.35
596;BME280;19946;49.306;11.350;2023-06-14T14:08:29;96148.53;;;22.54;37.15
596;BME280;19946;49.306;11.350;2023-06-14T14:11:29;96137.31;;;22.21;38.08
596;BME280;19946;49.306;11.350;2023-06-14T14:14:32;96143.25;;;23.17;37.05
596;BME280;19946;49.306;11.350;2023-06-14T14:17:32;96118.34;;;24.11;36.45
596;BME280;19946;49.306;11.350;2023-06-14T14:20:33;96149.56;;;23.84;37.27
596;BME280;19946;49.306;11.350;2023-06-14T14:23:33;96142.06;;;23.13;37.17
596;BME280;19946;49.306;11.350;2023-06-14T14:26:33;96114.97;;;23.00;35.69
596;BME280;19946;49.306;11.350;2023-06-14T14:29:34;96115.56;;;22.39;37.23
596;BME280;19946;49.306;11.350;2023-06-14T14:32:35;96135.75;;;22.07;36.63
596;BME280;19946;49.306;11.350;2023-06-14T14:35:35;96125.75;;;21.58;37.74
596;BME280;19946;49.306;11.350;2023-06-14T14:38:36;96155.56;;;21.32;38.18
596;BME280;19946;49.306;11.350;2023-06-14T14:41:36;96153.34;;;21.29;38.00
596;BME280;19946;49.306;11.350;2023-06-14T14:44:38;96144.44;;;21.30;37.17
596;BME280;19946;49.306;11.350;2023-06-14T14:47:38;96152.94;;;21.38;37.59
596;BME280;19946;49.306;11.350;2023-06-14T14:50:38;96099.06;;;20.75;36.82
596;BME280;19946;49.306;11.350;2023-06-14T14:53:39;96177.66;;;21.37;37.11
596;BME280;19946;49.306;11.350;2023-06-14T14:56:39;96114.81;;;21.54;37.19
596;BME280;19946;49.306;11.350;2023-06-14T14:59:39;96131.81;;;21.65;37.47
596;BME280;19946;49.306;11.350;2023-06-14T15:02:40;96163.53;;;22.09;39.49
596;BME280;19946;49.306;11.350;2023-06-14T15:05:40;96173.09;;;21.91;38.35
596;BME280;19946;49.306;11.350;2023-06-14T15:08:41;96155.31;;;21.66;39.16
596;BME280;19946;49.306;11.350;2023-06-14T15:11:41;96163.22;;;21.66;38.14
596;BME280;19946;49.306;11.350;2023-06-14T15:14:43;96185.97;;;21.28;38.81
596;BME280;19946;49.306;11.350;2023-06-14T15:17:43;96155.13;;;20.89;39.51
596;BME280;19946;49.306;11.350;2023-06-14T15:20:44;96128.81;;;20.75;39.90
596;BME280;19946;49.306;11.350;2023-06-14T15:23:45;96184.66;;;20.64;41.06
596;BME280;19946;49.306;11.350;2023-06-14T15:26:46;96154.47;;;20.54;41.09
596;BME280;19946;49.306;11.350;2023-06-14T15:29:46;96144.91;;;20.39;42.49
596;BME280;19946;49.306;11.350;2023-06-14T15:32:47;96189.72;;;20.72;41.71
596;BME280;19946;49.306;11.350;2023-06-14T15:35:47;96135.31;;;20.25;41.19
596;BME280;19946;49.306;11.350;2023-06-14T15:38:48;96171.41;;;20.45;41.70
596;BME280;19946;49.306;11.350;2023-06-14T15:41:48;96146.69;;;20.32;41.52
596;BME280;19946;49.306;11.350;2023-06-14T15:44:48;96125.56;;;20.06;41.40
596;BME280;19946;49.306;11.350;2023-06-14T15:47:48;96139.56;;;20.26;40.65
596;BME280;19946;49.306;11.350;2023-06-14T15:50:49;96189.34;;;20.89;41.20
596;BME280;19946;49.306;11.350;2023-06-14T15:53:49;96111.69;;;20.32;41.23
596;BME280;19946;49.306;11.350;2023-06-14T15:56:49;96189.56;;;20.87;40.81
596;BME280;19946;49.306;11.350;2023-06-14T15:59:50;96158.34;;;20.71;40.01
596;BME280;19946;49.306;11.350;2023-06-14T16:02:50;96147.84;;;20.84;40.34
596;BME280;19946;49.306;11.350;2023-06-14T16:05:50;96168.31;;;21.22;40.09
596;BME280;19946;49.306;11.350;2023-06-14T16:08:50;96134.09;;;21.15;39.62
596;BME280;19946;49.306;11.350;2023-06-14T16:11:52;96176.66;;;21.19;40.65
596;BME280;19946;49.306;11.350;2023-06-14T16:14:53;96128.00;;;20.75;40.81